Time;durP1;ratioP1;P1;durP2;ratioP2;P2;SDS_P1;SDS_P2;PMS_P1;PMS_P2;Temp;Humidity;BMP_temperature;BMP_pressure;BME280_temperature;BME280_humidity;BME280_pressure;Samples;Min_cycle;Max_cycle;Signal;HPM_P1;HPM_P2
2024/03/19 00:02:40;;;;;;;13.63;8.93;;;9.60;99.90;;;;;;5080668;28;21040;-78
2024/03/19 00:05:26;;;;;;;11.63;8.00;;;9.60;99.90;;;;;;5082711;28;20933;-76
2024/03/19 00:08:11;;;;;;;9.97;8.03;;;9.60;99.90;;;;;;5080863;28;20460;-77
2024/03/19 00:10:58;;;;;;;11.10;8.03;;;9.50;99.90;;;;;;5084275;28;20940;-77
2024/03/19 00:13:44;;;;;;;12.17;10.00;;;9.40;99.90;;;;;;5081638;28;20456;-74
2024/03/19 00:16:29;;;;;;;12.27;9.23;;;9.30;99.90;;;;;;5082897;28;21410;-77
2024/03/19 00:19:17;;;;;;;11.00;9.40;;;9.30;99.90;;;;;;5078594;28;20781;-77
2024/03/19 00:22:03;;;;;;;19.83;10.00;;;9.30;99.90;;;;;;5081140;28;20491;-77
2024/03/19 00:24:49;;;;;;;10.27;8.43;;;9.30;99.90;;;;;;5078901;28;20873;-76
2024/03/19 00:27:36;;;;;;;11.30;9.27;;;9.30;99.90;;;;;;5085865;28;20455;-77
2024/03/19 00:30:22;;;;;;;11.40;9.17;;;9.30;99.90;;;;;;5083511;28;20646;-77
2024/03/19 00:33:10;;;;;;;12.67;10.53;;;9.20;99.90;;;;;;5082693;28;20778;-77
2024/03/19 00:35:55;;;;;;;12.20;10.07;;;9.10;99.90;;;;;;5081656;28;20435;-77
2024/03/19 00:38:41;;;;;;;11.10;9.50;;;9.00;99.90;;;;;;5081032;28;20559;-77
2024/03/19 00:41:27;;;;;;;13.63;8.53;;;9.00;99.90;;;;;;5078484;28;20454;-76
2024/03/19 00:44:15;;;;;;;13.33;10.33;;;8.90;99.90;;;;;;5083571;28;20841;-76
2024/03/19 00:47:00;;;;;;;12.37;9.10;;;8.90;99.90;;;;;;5077477;28;21020;-76
2024/03/19 00:49:46;;;;;;;15.63;9.90;;;8.80;99.90;;;;;;5077770;28;20456;-76
2024/03/19 00:52:32;;;;;;;14.10;10.33;;;8.80;99.90;;;;;;5077760;28;20476;-76
2024/03/19 00:55:18;;;;;;;14.90;9.70;;;8.80;99.90;;;;;;5074774;28;20511;-76
2024/03/19 00:58:04;;;;;;;11.67;9.93;;;8.80;99.90;;;;;;5079928;28;20460;-75
2024/03/19 01:00:52;;;;;;;10.57;8.97;;;8.60;99.90;;;;;;5080714;28;20511;-75
2024/03/19 01:03:38;;;;;;;13.37;10.83;;;8.60;99.90;;;;;;5081665;28;20543;-76
2024/03/19 01:06:24;;;;;;;10.57;9.23;;;8.60;99.90;;;;;;5081762;28;20597;-76
2024/03/19 01:09:12;;;;;;;10.37;9.07;;;8.50;99.90;;;;;;5077469;28;20460;-77
2024/03/19 01:11:58;;;;;;;10.60;9.27;;;8.40;99.90;;;;;;5078072;28;20464;-77
2024/03/19 01:14:43;;;;;;;11.30;10.10;;;8.30;99.90;;;;;;5074733;28;20539;-78
2024/03/19 01:17:30;;;;;;;12.40;9.23;;;8.30;99.90;;;;;;5079777;28;20480;-75
2024/03/19 01:20:17;;;;;;;9.40;8.40;;;8.30;99.90;;;;;;5080360;28;20448;-76
2024/03/19 01:23:03;;;;;;;11.90;10.57;;;8.30;99.90;;;;;;5077694;28;20455;-75
2024/03/19 01:25:49;;;;;;;11.10;9.90;;;8.10;99.90;;;;;;5066072;28;20927;-75
2024/03/19 01:28:35;;;;;;;10.67;9.30;;;8.10;99.90;;;;;;5077987;28;20953;-75
2024/03/19 01:31:21;;;;;;;11.60;10.33;;;8.00;99.90;;;;;;5078509;28;21049;-75
2024/03/19 01:34:08;;;;;;;17.60;11.97;;;7.90;99.90;;;;;;5079055;28;20558;-76
2024/03/19 01:36:53;;;;;;;11.40;9.93;;;7.90;99.90;;;;;;5074995;28;20941;-75
2024/03/19 01:39:39;;;;;;;13.27;9.40;;;7.90;99.90;;;;;;5083021;28;20454;-76
2024/03/19 01:42:25;;;;;;;13.60;10.77;;;8.00;99.90;;;;;;5082826;28;21125;-76
2024/03/19 01:45:12;;;;;;;15.00;9.87;;;8.00;99.90;;;;;;5079672;28;20744;-75
2024/03/19 01:47:57;;;;;;;9.67;8.60;;;8.10;99.90;;;;;;5081737;28;20457;-76
2024/03/19 01:50:44;;;;;;;12.30;10.50;;;8.10;99.90;;;;;;5086115;28;20506;-76
2024/03/19 01:53:31;;;;;;;12.20;9.00;;;8.10;99.90;;;;;;5084966;28;20483;-75
2024/03/19 01:56:18;;;;;;;15.23;10.50;;;8.30;99.90;;;;;;5080553;28;20535;-77
2024/03/19 01:59:03;;;;;;;17.83;10.90;;;8.20;99.90;;;;;;5087454;28;20882;-76
2024/03/19 02:01:49;;;;;;;11.80;9.70;;;8.20;99.90;;;;;;5082709;28;20460;-75
2024/03/19 02:04:36;;;;;;;13.40;10.70;;;8.20;99.90;;;;;;5083457;28;20449;-76
2024/03/19 02:07:23;;;;;;;12.10;10.60;;;8.20;99.90;;;;;;5081430;28;20454;-75
2024/03/19 02:10:10;;;;;;;14.53;10.37;;;8.20;99.90;;;;;;5081820;28;20506;-75
2024/03/19 02:12:56;;;;;;;15.53;11.43;;;8.20;99.90;;;;;;5084767;28;20591;-75
2024/03/19 02:15:42;;;;;;;13.57;10.57;;;8.10;99.90;;;;;;5080686;28;20506;-75
2024/03/19 02:18:27;;;;;;;17.13;11.40;;;8.10;99.90;;;;;;5079695;28;20579;-76
2024/03/19 02:21:13;;;;;;;24.03;12.43;;;8.10;99.90;;;;;;5083416;28;20470;-77
2024/03/19 02:24:01;;;;;;;18.80;12.03;;;8.10;99.90;;;;;;5082229;28;20448;-76
2024/03/19 02:26:47;;;;;;;26.10;13.47;;;8.10;99.90;;;;;;5088820;28;20447;-76
2024/03/19 02:29:33;;;;;;;25.10;12.33;;;8.10;99.90;;;;;;5083936;28;20459;-76
2024/03/19 02:32:18;;;;;;;34.33;13.67;;;8.10;99.90;;;;;;5081682;28;20472;-77
2024/03/19 02:35:05;;;;;;;28.37;12.87;;;8.10;99.90;;;;;;5083143;28;20471;-77
2024/03/19 02:37:51;;;;;;;26.50;14.00;;;8.00;99.90;;;;;;5083718;28;20459;-76
2024/03/19 02:40:38;;;;;;;19.70;15.00;;;7.90;99.90;;;;;;5081922;28;20457;-76
2024/03/19 02:43:24;;;;;;;22.50;13.77;;;8.00;99.90;;;;;;5084115;28;20471;-76
2024/03/19 02:46:10;;;;;;;21.63;13.57;;;8.00;99.90;;;;;;5080522;28;20494;-76
2024/03/19 02:48:56;;;;;;;19.67;14.47;;;8.00;99.90;;;;;;5082556;28;20448;-77
2024/03/19 02:51:41;;;;;;;20.60;14.30;;;7.90;99.90;;;;;;5081940;28;20452;-76
2024/03/19 02:54:27;;;;;;;28.43;15.40;;;7.80;99.90;;;;;;5082620;28;21562;-75
2024/03/19 02:57:15;;;;;;;35.97;15.00;;;7.80;99.90;;;;;;5082273;28;20482;-76
2024/03/19 03:00:01;;;;;;;72.93;15.67;;;7.80;99.90;;;;;;5083839;28;20517;-76
2024/03/19 03:02:47;;;;;;;51.13;15.83;;;7.70;99.90;;;;;;5083054;28;20488;-75
2024/03/19 03:05:33;;;;;;;59.17;16.70;;;7.80;99.90;;;;;;5083953;28;20579;-77
2024/03/19 03:08:18;;;;;;;93.90;18.07;;;7.80;99.90;;;;;;5082663;28;20601;-77
2024/03/19 03:11:04;;;;;;;73.73;18.10;;;7.80;99.90;;;;;;5080295;28;20506;-76
2024/03/19 03:13:51;;;;;;;82.40;16.50;;;7.80;99.90;;;;;;5079938;28;20966;-76
2024/03/19 03:16:37;;;;;;;22.30;17.03;;;7.70;99.90;;;;;;5083204;28;20464;-76
2024/03/19 03:19:22;;;;;;;22.97;17.53;;;7.70;99.90;;;;;;5081507;28;20891;-76
2024/03/19 03:22:08;;;;;;;28.80;16.97;;;7.80;99.90;;;;;;5079340;28;20461;-76
2024/03/19 03:24:54;;;;;;;27.57;16.17;;;7.80;99.90;;;;;;5078426;28;20453;-76
2024/03/19 03:27:40;;;;;;;20.60;15.97;;;7.90;99.90;;;;;;5087769;28;20465;-76
2024/03/19 03:30:27;;;;;;;65.80;15.20;;;8.10;99.90;;;;;;5084156;28;20465;-76
2024/03/19 03:33:13;;;;;;;26.20;14.70;;;8.10;99.90;;;;;;5078179;28;20594;-76
2024/03/19 03:35:58;;;;;;;30.40;16.20;;;8.10;99.90;;;;;;5082270;28;20454;-76
2024/03/19 03:38:44;;;;;;;18.63;14.50;;;8.10;99.90;;;;;;5079525;28;20502;-76
2024/03/19 03:41:30;;;;;;;17.63;14.00;;;8.00;99.90;;;;;;5082630;28;21028;-76
2024/03/19 03:44:15;;;;;;;18.00;14.30;;;8.10;99.90;;;;;;5079818;28;20436;-75
2024/03/19 03:47:03;;;;;;;20.60;14.23;;;8.10;99.90;;;;;;5082537;28;20487;-76
2024/03/19 03:49:50;;;;;;;71.50;14.10;;;8.10;99.90;;;;;;5079830;28;20930;-76
2024/03/19 03:52:37;;;;;;;37.97;15.07;;;8.00;99.90;;;;;;5081728;28;21063;-76
2024/03/19 03:55:23;;;;;;;88.67;14.87;;;8.00;99.90;;;;;;5079133;28;20560;-75
2024/03/19 03:58:09;;;;;;;50.33;13.63;;;7.90;99.90;;;;;;5080397;28;21002;-76
2024/03/19 04:00:56;;;;;;;58.30;17.17;;;7.90;99.90;;;;;;5077289;28;20539;-76
2024/03/19 04:03:42;;;;;;;20.53;15.57;;;7.90;99.90;;;;;;5080780;28;20472;-76
2024/03/19 04:06:28;;;;;;;30.83;14.63;;;8.00;99.90;;;;;;5079262;28;20865;-77
2024/03/19 04:09:15;;;;;;;22.00;15.43;;;8.00;99.90;;;;;;5081682;28;20789;-76
2024/03/19 04:12:00;;;;;;;22.87;14.70;;;8.00;99.90;;;;;;5078887;28;21029;-76
2024/03/19 04:14:46;;;;;;;60.07;14.90;;;8.00;99.90;;;;;;5077086;28;21071;-75
2024/03/19 04:17:33;;;;;;;49.20;15.97;;;8.00;99.90;;;;;;5077694;28;20491;-76
2024/03/19 04:20:20;;;;;;;75.67;15.10;;;8.00;99.90;;;;;;5078835;28;20472;-76
2024/03/19 04:23:06;;;;;;;21.33;16.00;;;8.00;99.90;;;;;;5079123;28;20472;-76
2024/03/19 04:25:52;;;;;;;24.63;16.37;;;8.00;99.90;;;;;;5080129;28;20446;-75
2024/03/19 04:28:37;;;;;;;64.73;15.30;;;8.10;99.90;;;;;;5079891;28;20465;-76
2024/03/19 04:31:23;;;;;;;48.43;16.20;;;8.10;99.90;;;;;;5079540;28;20457;-76
2024/03/19 04:34:10;;;;;;;26.30;14.47;;;8.00;99.90;;;;;;5078899;28;20480;-76
2024/03/19 04:36:58;;;;;;;32.45;14.27;;;8.00;99.90;;;;;;5078680;28;20490;-76
2024/03/19 04:39:43;;;;;;;16.20;13.43;;;8.00;99.90;;;;;;5078660;28;20603;-76
2024/03/19 04:42:29;;;;;;;37.63;13.03;;;8.00;99.90;;;;;;5076953;28;20989;-77
2024/03/19 04:45:14;;;;;;;24.73;13.93;;;7.90;99.90;;;;;;5075603;28;20454;-75
2024/03/19 04:48:00;;;;;;;36.87;13.90;;;7.80;99.90;;;;;;5077475;28;20464;-76
2024/03/19 04:50:46;;;;;;;24.90;15.20;;;7.70;99.90;;;;;;5078871;28;20456;-76
2024/03/19 04:53:33;;;;;;;26.30;14.40;;;7.60;99.90;;;;;;5080175;28;20470;-75
2024/03/19 04:56:19;;;;;;;18.30;14.60;;;7.60;99.90;;;;;;5080500;28;20797;-76
2024/03/19 04:59:05;;;;;;;18.50;14.60;;;7.70;99.90;;;;;;5083776;28;20880;-75
2024/03/19 05:01:50;;;;;;;16.80;13.90;;;7.70;99.90;;;;;;5080976;28;20837;-75
2024/03/19 05:04:36;;;;;;;16.70;13.60;;;7.80;99.90;;;;;;5079977;28;20481;-76
2024/03/19 05:07:22;;;;;;;17.10;12.93;;;7.70;99.90;;;;;;5079259;28;20575;-76
2024/03/19 05:10:10;;;;;;;16.83;12.80;;;7.80;99.90;;;;;;5079320;28;20527;-76
2024/03/19 05:12:55;;;;;;;17.00;12.77;;;7.80;99.90;;;;;;5081797;28;20475;-76
2024/03/19 05:15:41;;;;;;;16.97;13.13;;;7.80;99.90;;;;;;5084833;28;20472;-75
2024/03/19 05:18:27;;;;;;;16.60;12.83;;;7.60;99.90;;;;;;5081383;28;20805;-76
2024/03/19 05:21:12;;;;;;;15.67;12.00;;;7.60;99.90;;;;;;5082748;28;20488;-76
2024/03/19 05:23:58;;;;;;;19.50;12.60;;;7.50;99.90;;;;;;5082855;28;20464;-76
2024/03/19 05:26:46;;;;;;;16.87;13.60;;;7.50;99.90;;;;;;5084440;28;20800;-76
2024/03/19 05:29:32;;;;;;;17.13;13.60;;;7.60;99.90;;;;;;5086751;28;20472;-76
2024/03/19 05:32:18;;;;;;;19.83;13.00;;;7.60;99.90;;;;;;5082869;28;20488;-75
2024/03/19 05:35:06;;;;;;;17.30;13.33;;;7.60;99.90;;;;;;5084744;28;20475;-76
2024/03/19 05:37:52;;;;;;;15.30;13.70;;;7.60;99.90;;;;;;5083916;28;20459;-76
2024/03/19 05:40:37;;;;;;;19.38;14.48;;;7.50;99.90;;;;;;5086591;28;21029;-78
2024/03/19 05:43:24;;;;;;;16.97;14.00;;;7.50;99.90;;;;;;5085007;28;20240;-76
2024/03/19 05:46:10;;;;;;;14.60;12.00;;;7.60;99.90;;;;;;5084408;28;21183;-76
2024/03/19 05:48:55;;;;;;;17.00;13.53;;;7.60;99.90;;;;;;5080545;28;20447;-76
2024/03/19 05:51:41;;;;;;;16.27;13.63;;;7.60;99.90;;;;;;5084924;28;20451;-76
2024/03/19 05:54:27;;;;;;;15.10;12.70;;;7.60;99.90;;;;;;5078729;28;20475;-77
2024/03/19 05:57:13;;;;;;;15.43;12.60;;;7.70;99.90;;;;;;5087555;28;20781;-76
2024/03/19 06:00:00;;;;;;;14.00;12.23;;;7.80;99.90;;;;;;5082069;28;20464;-76
2024/03/19 06:02:46;;;;;;;15.83;12.77;;;7.80;99.90;;;;;;5080013;28;20480;-75
2024/03/19 06:05:32;;;;;;;15.03;12.97;;;7.80;99.90;;;;;;5077698;28;20859;-77
2024/03/19 06:08:17;;;;;;;16.23;13.33;;;7.80;99.90;;;;;;5084044;28;20914;-76
2024/03/19 06:11:03;;;;;;;15.10;11.67;;;7.90;99.90;;;;;;5083094;28;20534;-76
2024/03/19 06:13:49;;;;;;;13.57;11.07;;;8.00;99.90;;;;;;5082733;28;20474;-77
2024/03/19 06:16:36;;;;;;;11.60;10.40;;;8.00;99.90;;;;;;5083363;28;20980;-76
2024/03/19 06:19:22;;;;;;;12.07;10.50;;;8.00;99.90;;;;;;5083038;28;20446;-76
2024/03/19 06:22:08;;;;;;;13.73;11.53;;;8.00;99.90;;;;;;5084392;28;20844;-76
2024/03/19 06:24:53;;;;;;;12.60;10.33;;;8.10;99.90;;;;;;5082765;28;20809;-76
2024/03/19 06:27:39;;;;;;;13.67;11.20;;;8.10;99.90;;;;;;5084474;28;21072;-76
2024/03/19 06:30:25;;;;;;;13.13;10.87;;;8.20;99.90;;;;;;5082986;28;20562;-76
2024/03/19 06:33:12;;;;;;;12.57;11.27;;;8.20;99.90;;;;;;5079932;28;20467;-76
2024/03/19 06:35:58;;;;;;;12.87;10.67;;;8.30;99.90;;;;;;5082554;28;20476;-76
2024/03/19 06:38:43;;;;;;;14.17;11.67;;;8.30;99.90;;;;;;5081923;28;20452;-76
2024/03/19 06:41:31;;;;;;;13.30;11.20;;;8.30;99.90;;;;;;5079578;28;20450;-76
2024/03/19 06:44:17;;;;;;;13.93;11.63;;;8.30;99.90;;;;;;5081764;28;20468;-76
2024/03/19 06:47:02;;;;;;;13.47;12.03;;;8.40;99.90;;;;;;5081679;28;20468;-75
2024/03/19 06:49:50;;;;;;;12.40;10.53;;;8.40;99.90;;;;;;5084834;28;20804;-77
2024/03/19 06:52:36;;;;;;;11.47;10.37;;;8.40;99.90;;;;;;5083964;28;20475;-76
2024/03/19 06:55:21;;;;;;;19.03;11.73;;;8.40;99.90;;;;;;5082774;28;20472;-75
2024/03/19 06:58:07;;;;;;;13.57;10.83;;;8.50;99.90;;;;;;5080929;28;20460;-76
2024/03/19 07:00:53;;;;;;;11.83;10.57;;;8.60;99.90;;;;;;5085540;28;20587;-76
2024/03/19 07:03:39;;;;;;;13.23;11.20;;;8.70;99.90;;;;;;5085117;28;20473;-78
2024/03/19 07:06:26;;;;;;;13.40;11.23;;;8.70;99.90;;;;;;5085710;28;20564;-77
2024/03/19 07:09:12;;;;;;;15.00;11.90;;;8.80;99.90;;;;;;5083903;28;20475;-75
2024/03/19 07:11:58;;;;;;;14.70;11.73;;;8.80;99.90;;;;;;5085312;28;20486;-78
2024/03/19 07:14:44;;;;;;;15.00;12.03;;;8.80;99.90;;;;;;5086111;28;22421;-76
2024/03/19 07:17:30;;;;;;;12.30;11.00;;;8.90;99.90;;;;;;5084640;28;20483;-78
2024/03/19 07:20:18;;;;;;;13.70;11.23;;;8.90;99.90;;;;;;5087115;28;20455;-77
2024/03/19 07:23:06;;;;;;;15.70;11.47;;;9.00;99.90;;;;;;5086173;28;20484;-77
2024/03/19 07:25:54;;;;;;;13.03;10.57;;;9.00;99.90;;;;;;5084463;28;20446;-76
2024/03/19 07:28:39;;;;;;;14.43;12.23;;;9.10;99.90;;;;;;5090076;28;20460;-78
2024/03/19 07:31:25;;;;;;;15.87;12.37;;;9.20;99.90;;;;;;5083232;28;20455;-76
2024/03/19 07:34:11;;;;;;;16.20;11.93;;;9.20;99.90;;;;;;5085251;28;20532;-75
2024/03/19 07:36:56;;;;;;;15.97;12.00;;;9.20;99.90;;;;;;5085675;28;20452;-77
2024/03/19 07:39:44;;;;;;;16.40;12.57;;;9.30;99.90;;;;;;5085295;28;20484;-77
2024/03/19 07:42:29;;;;;;;12.70;10.40;;;9.30;99.90;;;;;;5083538;28;20484;-77
2024/03/19 07:45:15;;;;;;;13.83;11.70;;;9.40;99.90;;;;;;5084203;28;20491;-78
2024/03/19 07:48:04;;;;;;;13.90;10.73;;;9.40;99.90;;;;;;5084891;28;20472;-78
2024/03/19 07:50:49;;;;;;;12.00;10.60;;;9.40;99.90;;;;;;5083724;28;20509;-78
2024/03/19 07:53:35;;;;;;;15.10;12.63;;;9.50;99.90;;;;;;5081624;28;20557;-77
2024/03/19 07:56:22;;;;;;;15.57;11.67;;;9.50;99.90;;;;;;5079989;28;20476;-76
2024/03/19 07:59:08;;;;;;;14.70;12.03;;;9.60;99.90;;;;;;5080969;28;20449;-76
2024/03/19 08:01:53;;;;;;;15.33;11.83;;;9.70;99.90;;;;;;5083659;28;20470;-77
2024/03/19 08:04:39;;;;;;;15.57;11.87;;;9.80;99.90;;;;;;5078196;28;20452;-77
2024/03/19 08:07:25;;;;;;;15.50;11.90;;;9.90;99.90;;;;;;5080611;28;20460;-77
2024/03/19 08:10:12;;;;;;;18.70;12.23;;;10.00;99.90;;;;;;5080535;28;21373;-77
2024/03/19 08:13:00;;;;;;;14.10;10.70;;;10.10;99.90;;;;;;5082766;28;20604;-75
2024/03/19 08:15:46;;;;;;;14.37;11.17;;;10.20;99.90;;;;;;5080832;28;20468;-77
2024/03/19 08:18:32;;;;;;;13.03;10.13;;;10.30;99.90;;;;;;5086769;28;20440;-78
2024/03/19 08:21:18;;;;;;;15.27;10.33;;;10.30;99.90;;;;;;5079734;28;21378;-77
2024/03/19 08:24:05;;;;;;;11.97;9.60;;;10.40;99.90;;;;;;5079534;28;20582;-78
2024/03/19 08:26:50;;;;;;;10.70;8.87;;;10.50;99.90;;;;;;5078743;28;20448;-78
2024/03/19 08:29:38;;;;;;;19.40;7.80;;;10.60;99.90;;;;;;5081682;28;20456;-78
2024/03/19 08:32:23;;;;;;;14.10;8.13;;;10.70;99.90;;;;;;5081976;28;20473;-75
2024/03/19 08:35:10;;;;;;;11.43;8.23;;;10.80;99.90;;;;;;5078764;28;21023;-76
2024/03/19 08:37:56;;;;;;;8.47;7.40;;;10.90;99.90;;;;;;5079831;28;20444;-77
2024/03/19 08:40:42;;;;;;;8.33;5.93;;;11.00;99.90;;;;;;5077597;28;20461;-77
2024/03/19 08:43:28;;;;;;;5.83;5.00;;;11.10;99.90;;;;;;5079706;28;20475;-74
2024/03/19 08:46:16;;;;;;;6.57;5.30;;;11.20;99.90;;;;;;5082038;28;20808;-77
2024/03/19 08:49:02;;;;;;;6.30;5.40;;;11.30;99.90;;;;;;5085607;28;20980;-75
2024/03/19 08:51:48;;;;;;;7.17;5.63;;;11.40;99.90;;;;;;5086895;28;20472;-78
2024/03/19 08:54:34;;;;;;;6.77;5.70;;;11.40;99.90;;;;;;5080768;28;20450;-74
2024/03/19 08:57:19;;;;;;;7.47;5.90;;;11.40;99.90;;;;;;5079136;28;21028;-74
2024/03/19 09:00:10;;;;;;;7.00;5.73;;;11.50;99.90;;;;;;5084283;28;20460;-77
2024/03/19 09:02:57;;;;;;;10.70;6.83;;;11.60;99.90;;;;;;5079224;28;20540;-77
2024/03/19 09:05:43;;;;;;;8.53;6.37;;;11.60;99.90;;;;;;5087108;28;20440;-78
2024/03/19 09:08:29;;;;;;;7.13;6.23;;;11.70;99.90;;;;;;5087665;28;20445;-74
2024/03/19 09:11:14;;;;;;;8.20;6.70;;;11.70;99.90;;;;;;5082606;28;20454;-76
2024/03/19 09:14:00;;;;;;;9.03;6.00;;;11.80;99.90;;;;;;5085783;28;20448;-78
2024/03/19 09:16:45;;;;;;;17.43;6.60;;;11.90;99.90;;;;;;5085676;28;20479;-78
2024/03/19 09:19:40;;;;;;;7.60;6.03;;;12.00;99.90;;;;;;5086455;28;20524;-76
2024/03/19 09:22:26;;;;;;;7.13;6.10;;;12.10;99.90;;;;;;5083923;28;20485;-78
2024/03/19 09:25:13;;;;;;;8.60;4.80;;;12.20;99.90;;;;;;5086230;28;20454;-78
2024/03/19 09:27:59;;;;;;;6.43;4.73;;;12.30;99.90;;;;;;5086445;28;20460;-74
2024/03/19 09:30:45;;;;;;;7.57;4.70;;;12.40;99.90;;;;;;5085453;28;20451;-74
2024/03/19 09:33:31;;;;;;;5.40;4.47;;;12.50;99.90;;;;;;5082414;28;20468;-77
2024/03/19 09:36:19;;;;;;;5.30;3.97;;;12.60;99.90;;;;;;5077967;28;20472;-76
2024/03/19 09:39:10;;;;;;;5.30;4.37;;;12.70;99.90;;;;;;5082430;28;20449;-78
2024/03/19 09:42:04;;;;;;;5.50;4.27;;;12.80;99.90;;;;;;5085630;28;20452;-77
2024/03/19 09:44:52;;;;;;;5.37;3.60;;;12.80;99.90;;;;;;5080111;28;20453;-78
2024/03/19 09:47:38;;;;;;;4.87;4.00;;;12.90;99.90;;;;;;5078648;28;20585;-78
2024/03/19 09:50:25;;;;;;;5.33;4.20;;;13.00;99.90;;;;;;5084922;28;20454;-78
2024/03/19 09:53:18;;;;;;;5.53;3.80;;;13.10;99.90;;;;;;5077382;28;20503;-76
2024/03/19 09:56:05;;;;;;;5.40;3.60;;;13.20;99.90;;;;;;5082357;28;20615;-74
2024/03/19 09:58:51;;;;;;;13.07;4.67;;;13.30;99.90;;;;;;5080866;28;20543;-78
2024/03/19 10:01:37;;;;;;;5.50;3.63;;;13.50;99.90;;;;;;5083187;28;20579;-78
2024/03/19 10:04:23;;;;;;;4.57;3.67;;;13.70;99.90;;;;;;5081353;28;20972;-78
2024/03/19 10:07:09;;;;;;;5.13;3.27;;;13.80;99.90;;;;;;5085890;28;20948;-75
2024/03/19 10:09:56;;;;;;;6.50;3.60;;;14.10;99.90;;;;;;5082618;28;20524;-78
2024/03/19 10:12:42;;;;;;;5.10;3.50;;;14.20;99.90;;;;;;5088398;28;20477;-78
2024/03/19 10:15:28;;;;;;;5.40;3.27;;;14.20;99.90;;;;;;5081055;28;20864;-77
2024/03/19 10:18:13;;;;;;;4.97;4.00;;;14.20;99.90;;;;;;5086941;28;20602;-77
2024/03/19 10:21:00;;;;;;;6.90;3.40;;;14.20;99.90;;;;;;5087109;28;20444;-75
2024/03/19 10:23:45;;;;;;;4.67;3.47;;;14.30;99.90;;;;;;5081276;28;20487;-77
2024/03/19 10:26:32;;;;;;;6.17;2.90;;;14.30;99.90;;;;;;5082411;28;20457;-77
2024/03/19 10:29:17;;;;;;;5.67;3.23;;;14.40;99.90;;;;;;5081284;28;20568;-77
2024/03/19 10:32:07;;;;;;;6.27;3.23;;;14.40;99.90;;;;;;5081805;28;20465;-77
2024/03/19 10:34:54;;;;;;;4.67;2.90;;;14.50;99.90;;;;;;5081161;28;20939;-76
2024/03/19 10:37:39;;;;;;;6.10;3.80;;;14.60;99.90;;;;;;5081266;28;20451;-76
2024/03/19 10:40:25;;;;;;;4.70;3.20;;;14.70;99.90;;;;;;5079252;28;21935;-76
2024/03/19 10:43:18;;;;;;;3.93;2.50;;;14.80;99.90;;;;;;5081739;28;20480;-78
2024/03/19 10:46:04;;;;;;;6.13;2.90;;;14.80;99.90;;;;;;5079368;28;20847;-78
2024/03/19 10:48:50;;;;;;;4.47;2.87;;;14.90;99.90;;;;;;5084634;28;20457;-78
2024/03/19 10:51:36;;;;;;;5.27;2.93;;;15.00;99.90;;;;;;5086739;28;20499;-78
2024/03/19 10:54:25;;;;;;;4.27;2.70;;;15.00;99.90;;;;;;5079103;28;20535;-78
2024/03/19 10:57:16;;;;;;;7.63;2.57;;;15.00;99.90;;;;;;5084514;28;20482;-76
2024/03/19 11:00:05;;;;;;;4.40;2.97;;;14.90;99.90;;;;;;5077157;28;20442;-77
2024/03/19 11:02:52;;;;;;;4.93;3.63;;;14.90;99.90;;;;;;5074757;28;20462;-77
2024/03/19 11:05:40;;;;;;;4.83;4.07;;;14.90;99.90;;;;;;5072898;28;20519;-77
2024/03/19 11:08:25;;;;;;;12.80;5.30;;;14.80;99.90;;;;;;5078826;28;21415;-77
2024/03/19 11:11:12;;;;;;;7.60;5.80;;;14.80;99.90;;;;;;5074756;28;20836;-77
2024/03/19 11:14:02;;;;;;;7.80;5.50;;;14.80;99.90;;;;;;5079054;28;20457;-78
2024/03/19 11:16:49;;;;;;;6.67;5.53;;;14.70;99.90;;;;;;5081108;28;20555;-75
2024/03/19 11:19:38;;;;;;;7.57;5.07;;;14.70;99.90;;;;;;5087012;28;20581;-77
2024/03/19 11:22:24;;;;;;;7.47;5.93;;;14.70;99.90;;;;;;5081961;28;20604;-77
2024/03/19 11:25:12;;;;;;;7.60;5.37;;;14.60;99.90;;;;;;5084960;28;20484;-78
2024/03/19 11:27:57;;;;;;;10.83;5.80;;;14.60;99.90;;;;;;5087960;28;20437;-77
2024/03/19 11:30:46;;;;;;;6.37;4.87;;;14.60;99.90;;;;;;5083074;28;20939;-78
2024/03/19 11:33:36;;;;;;;6.67;4.83;;;14.70;99.90;;;;;;5088592;28;20541;-77
2024/03/19 11:36:22;;;;;;;8.20;5.03;;;14.80;99.90;;;;;;5087153;28;20547;-77
2024/03/19 11:39:10;;;;;;;5.90;4.70;;;14.80;99.90;;;;;;5087984;28;20924;-77
2024/03/19 11:41:56;;;;;;;6.40;4.50;;;14.90;99.90;;;;;;5084861;28;20860;-77
2024/03/19 11:44:42;;;;;;;6.00;4.33;;;14.90;99.90;;;;;;5095737;28;20464;-77
2024/03/19 11:47:28;;;;;;;6.43;4.33;;;15.00;99.90;;;;;;5098071;28;20514;-77
2024/03/19 11:50:19;;;;;;;4.90;3.87;;;15.00;99.90;;;;;;5097778;28;20408;-77
2024/03/19 11:53:05;;;;;;;5.57;3.90;;;15.10;99.90;;;;;;5095135;28;20474;-77
2024/03/19 11:55:52;;;;;;;6.40;4.53;;;15.20;99.90;;;;;;5085963;28;20486;-75
2024/03/19 11:58:38;;;;;;;6.60;4.40;;;15.30;99.90;;;;;;5085110;28;20599;-77
2024/03/19 12:01:24;;;;;;;5.07;4.50;;;15.40;99.90;;;;;;5083580;28;20468;-77
2024/03/19 12:04:11;;;;;;;5.97;4.33;;;15.40;99.90;;;;;;5083628;28;20971;-77
2024/03/19 12:06:58;;;;;;;4.90;4.13;;;15.50;99.90;;;;;;5082115;28;21005;-75
2024/03/19 12:09:44;;;;;;;5.90;4.50;;;15.60;99.90;;;;;;5088320;28;20512;-77
2024/03/19 12:12:30;;;;;;;4.60;3.50;;;15.60;99.90;;;;;;5086565;28;20500;-73
2024/03/19 12:15:16;;;;;;;9.23;4.10;;;15.70;99.90;;;;;;5081778;28;21053;-77
2024/03/19 12:18:02;;;;;;;5.90;4.10;;;15.80;99.90;;;;;;5085360;28;20540;-77
2024/03/19 12:20:49;;;;;;;7.67;3.60;;;16.00;99.90;;;;;;5084131;28;20532;-77
2024/03/19 12:23:37;;;;;;;4.97;3.90;;;16.20;99.90;;;;;;5084240;28;20495;-75
2024/03/19 12:26:23;;;;;;;7.17;4.03;;;16.30;99.90;;;;;;5084154;28;20434;-77
2024/03/19 12:29:10;;;;;;;6.50;3.80;;;16.40;99.90;;;;;;5082218;28;20542;-75
2024/03/19 12:32:02;;;;;;;6.23;3.67;;;16.50;99.90;;;;;;5085946;28;20489;-77
2024/03/19 12:34:58;;;;;;;4.00;3.30;;;16.50;99.90;;;;;;5082258;28;20458;-74
2024/03/19 12:37:44;;;;;;;5.30;3.80;;;16.50;99.90;;;;;;5083381;28;20554;-77
2024/03/19 12:40:32;;;;;;;8.37;3.03;;;16.50;99.90;;;;;;5080607;28;20457;-75
2024/03/19 12:43:18;;;;;;;6.13;3.70;;;16.60;99.90;;;;;;5083993;28;20583;-75
2024/03/19 12:46:06;;;;;;;6.47;3.10;;;16.60;99.90;;;;;;5076032;22;20477;-84
2024/03/19 12:48:51;;;;;;;4.70;3.40;;;16.70;99.90;;;;;;5064154;28;21002;-84
2024/03/19 12:51:37;;;;;;;5.50;3.17;;;16.90;99.90;;;;;;5069445;28;20432;-83
2024/03/19 12:54:25;;;;;;;4.60;3.30;;;17.00;99.90;;;;;;5076367;28;20460;-83
2024/03/19 12:57:11;;;;;;;6.07;3.43;;;17.00;99.90;;;;;;5078172;28;20524;-84
2024/03/19 12:59:57;;;;;;;6.03;3.43;;;16.90;99.90;;;;;;5063339;28;20977;-85
2024/03/19 13:02:47;;;;;;;4.37;3.20;;;16.90;99.90;;;;;;5059353;28;20543;-81
2024/03/19 13:05:33;;;;;;;10.57;3.60;;;16.90;99.90;;;;;;5061694;28;20453;-84
2024/03/19 13:08:19;;;;;;;4.50;3.10;;;17.00;99.90;;;;;;5068521;28;20427;-84
2024/03/19 13:11:05;;;;;;;4.83;2.30;;;17.10;99.90;;;;;;5058793;28;20475;-84
2024/03/19 13:13:52;;;;;;;4.23;2.40;;;17.30;99.90;;;;;;5058032;28;20452;-82
2024/03/19 13:16:39;;;;;;;3.80;2.80;;;17.40;98.60;;;;;;5062054;28;21071;-84
2024/03/19 13:19:25;;;;;;;5.77;2.37;;;17.50;98.00;;;;;;5059464;28;22199;-84
2024/03/19 13:22:11;;;;;;;4.73;2.00;;;17.60;92.90;;;;;;5059495;28;20538;-83
2024/03/19 13:24:57;;;;;;;3.90;2.50;;;17.70;92.90;;;;;;5063728;28;20471;-83
2024/03/19 13:27:42;;;;;;;3.00;1.90;;;17.80;93.20;;;;;;5062495;28;20417;-82
2024/03/19 13:30:30;;;;;;;3.30;2.00;;;17.90;91.50;;;;;;5058553;28;20524;-82
2024/03/19 13:33:15;;;;;;;3.07;2.00;;;18.00;90.20;;;;;;5057721;28;20483;-82
2024/03/19 13:36:01;;;;;;;2.73;1.93;;;18.20;89.60;;;;;;5059583;28;20495;-83
2024/03/19 13:38:48;;;;;;;4.70;2.50;;;18.50;90.70;;;;;;5063529;28;20460;-83
2024/03/19 13:41:33;;;;;;;4.20;2.00;;;18.80;87.80;;;;;;5070326;28;20513;-82
2024/03/19 13:44:19;;;;;;;5.83;2.30;;;18.90;76.50;;;;;;5066791;28;20467;-82
2024/03/19 13:47:07;;;;;;;3.83;2.33;;;19.00;78.30;;;;;;5069237;28;20444;-84
2024/03/19 13:49:53;;;;;;;4.50;2.13;;;19.10;74.00;;;;;;5062014;28;20506;-82
2024/03/19 13:52:39;;;;;;;7.50;2.17;;;19.20;72.10;;;;;;5061752;28;20436;-83
2024/03/19 13:55:25;;;;;;;3.43;2.13;;;19.30;71.20;;;;;;5068189;28;20933;-83
2024/03/19 13:58:11;;;;;;;6.30;1.90;;;19.30;69.70;;;;;;5063342;28;20456;-84
2024/03/19 14:00:57;;;;;;;4.70;2.43;;;19.30;71.30;;;;;;5058726;28;20436;-83
2024/03/19 14:03:44;;;;;;;2.83;2.07;;;19.20;71.40;;;;;;5060526;28;20457;-84
2024/03/19 14:06:30;;;;;;;5.40;1.73;;;19.10;71.40;;;;;;5058583;28;20553;-83
2024/03/19 14:09:16;;;;;;;4.63;2.03;;;19.20;74.50;;;;;;5060356;28;20458;-83
2024/03/19 14:12:01;;;;;;;6.90;2.73;;;19.20;70.50;;;;;;5062159;28;20461;-82
2024/03/19 14:14:48;;;;;;;4.80;2.23;;;19.30;69.30;;;;;;5069767;28;20444;-83
2024/03/19 14:17:34;;;;;;;3.77;2.43;;;19.20;67.60;;;;;;5062224;28;20459;-84
2024/03/19 14:20:21;;;;;;;4.40;2.37;;;19.10;66.80;;;;;;5062404;28;20424;-84